Time;durP1;ratioP1;P1;durP2;ratioP2;P2;SDS_P1;SDS_P2;PMS_P1;PMS_P2;Temp;Humidity;BMP_temperature;BMP_pressure;BME280_temperature;BME280_humidity;BME280_pressure;Samples;Min_cycle;Max_cycle;Signal;HPM_P1;HPM_P2
2023/06/05 00:02:10;;;;;;;0.15;0.15;;;;;;;12.78;54.43;97843.28;4982749;28;20135;-71
2023/06/05 00:04:39;;;;;;;0.20;0.20;;;;;;;12.78;53.70;97843.28;4976171;28;20066;-71
2023/06/05 00:07:07;;;;;;;0.20;0.20;;;;;;;12.78;53.81;97835.25;4979389;28;20043;-70
2023/06/05 00:09:35;;;;;;;0.20;0.20;;;;;;;12.72;54.25;97836.91;4970134;28;20039;-70
2023/06/05 00:12:04;;;;;;;0.10;0.10;;;;;;;12.71;54.37;97837.09;4984444;28;20461;-70
2023/06/05 00:14:32;;;;;;;0.13;0.13;;;;;;;12.52;54.75;97836.00;4958382;28;20482;-70
2023/06/05 00:17:00;;;;;;;0.20;0.20;;;;;;;12.38;55.09;97835.13;4965896;28;20050;-73
2023/06/05 00:19:29;;;;;;;0.10;0.10;;;;;;;12.40;55.19;97835.75;4974175;28;20113;-70
2023/06/05 00:21:57;;;;;;;0.10;0.10;;;;;;;12.28;55.76;97832.00;4985178;28;20042;-71
2023/06/05 00:24:24;;;;;;;0.20;0.20;;;;;;;12.20;56.00;97834.03;4984990;28;20046;-71
2023/06/05 00:26:52;;;;;;;0.20;0.20;;;;;;;12.26;55.84;97834.03;4984261;28;20047;-69
2023/06/05 00:29:21;;;;;;;0.10;0.10;;;;;;;12.25;56.18;97831.59;4979091;28;20031;-70
2023/06/05 00:31:49;;;;;;;0.20;0.20;;;;;;;12.18;56.24;97830.72;4965869;28;20513;-71
2023/06/05 00:34:16;;;;;;;0.20;0.20;;;;;;;12.12;56.59;97833.19;4968190;28;20050;-72
2023/06/05 00:36:44;;;;;;;0.20;0.20;;;;;;;12.12;56.55;97827.81;4978502;28;20409;-71
2023/06/05 00:39:11;;;;;;;0.10;0.10;;;;;;;12.10;56.62;97827.19;4967398;28;20047;-71
2023/06/05 00:41:41;;;;;;;0.20;0.20;;;;;;;12.09;56.20;97820.19;4957665;28;20053;-71
2023/06/05 00:44:10;;;;;;;0.20;0.20;;;;;;;12.07;55.71;97827.59;4961674;28;20039;-71
2023/06/05 00:46:39;;;;;;;0.20;0.20;;;;;;;11.95;56.96;97825.66;4981656;28;20038;-71
2023/06/05 00:49:08;;;;;;;0.10;0.10;;;;;;;12.04;56.75;97819.94;4953764;28;20093;-71
2023/06/05 00:51:36;;;;;;;0.43;0.43;;;;;;;11.95;56.91;97820.31;4973363;28;20532;-70
2023/06/05 00:54:05;;;;;;;0.15;0.15;;;;;;;11.94;57.08;97824.81;4980204;28;20045;-71
2023/06/05 00:56:35;;;;;;;0.13;0.13;;;;;;;12.00;56.82;97816.03;4980092;28;20069;-71
2023/06/05 00:59:03;;;;;;;0.22;0.22;;;;;;;11.94;56.75;97814.13;4975884;28;20046;-71
2023/06/05 01:01:32;;;;;;;0.20;0.20;;;;;;;11.87;57.38;97813.28;4973194;28;20039;-71
2023/06/05 01:04:01;;;;;;;0.20;0.20;;;;;;;11.79;57.57;97817.97;4979447;28;20045;-71
2023/06/05 01:06:30;;;;;;;0.10;0.10;;;;;;;11.75;57.51;97818.34;4953361;28;20141;-70
2023/06/05 01:09:00;;;;;;;0.10;0.10;;;;;;;11.64;58.22;97813.50;4958542;28;20039;-71
2023/06/05 01:11:33;;;;;;;0.10;0.10;;;;;;;11.61;58.35;97813.09;4972262;28;20049;-72
2023/06/05 01:14:06;;;;;;;0.13;0.13;;;;;;;11.53;58.51;97819.41;4962676;28;20043;-72
2023/06/05 01:16:36;;;;;;;0.10;0.10;;;;;;;11.42;58.75;97813.78;4978291;28;20046;-71
2023/06/05 01:19:06;;;;;;;0.10;0.10;;;;;;;11.41;58.93;97815.63;4964235;28;20081;-72
2023/06/05 01:21:35;;;;;;;0.10;0.10;;;;;;;11.41;58.84;97815.63;4955123;28;20047;-71
2023/06/05 01:24:05;;;;;;;0.10;0.10;;;;;;;11.40;58.64;97814.81;4969401;28;20050;-70
2023/06/05 01:26:37;;;;;;;0.20;0.20;;;;;;;11.28;58.92;97819.03;4956928;28;20102;-71
2023/06/05 01:29:07;;;;;;;0.20;0.20;;;;;;;11.18;59.40;97826.53;4969751;28;20053;-71
2023/06/05 01:31:36;;;;;;;0.10;0.10;;;;;;;11.09;59.39;97819.69;4949077;28;20042;-71
2023/06/05 01:34:08;;;;;;;0.15;0.15;;;;;;;11.01;59.27;97827.81;4953308;28;20464;-71
2023/06/05 01:36:37;;;;;;;0.10;0.10;;;;;;;10.93;59.86;97814.59;4962239;28;20167;-70
2023/06/05 01:39:08;;;;;;;0.13;0.13;;;;;;;10.66;60.77;97817.03;4980611;28;20062;-70
2023/06/05 01:41:36;;;;;;;0.20;0.20;;;;;;;10.59;61.11;97807.25;4977281;28;20509;-70
2023/06/05 01:44:05;;;;;;;0.22;0.22;;;;;;;10.72;60.53;97818.09;4984471;28;20053;-71
2023/06/05 01:46:32;;;;;;;0.20;0.20;;;;;;;10.69;60.95;97805.13;4984042;28;20116;-71
2023/06/05 01:49:02;;;;;;;0.25;0.25;;;;;;;10.75;60.71;97814.22;4979135;28;20050;-71
2023/06/05 01:51:29;;;;;;;0.03;0.03;;;;;;;10.89;60.50;97816.84;4973565;28;20039;-71
2023/06/05 01:53:57;;;;;;;0.20;0.20;;;;;;;10.97;60.15;97810.53;4980455;28;20056;-70
2023/06/05 01:56:26;;;;;;;0.10;0.10;;;;;;;10.93;60.49;97812.75;4977447;28;20517;-69
2023/06/05 01:58:54;;;;;;;0.20;0.20;;;;;;;10.86;60.41;97819.88;4971950;28;20046;-69
2023/06/05 02:01:23;;;;;;;0.20;0.20;;;;;;;10.86;60.24;97814.53;4967281;28;20039;-70
2023/06/05 02:03:53;;;;;;;0.17;0.17;;;;;;;10.82;60.70;97817.78;4978214;28;20454;-70
2023/06/05 02:06:21;;;;;;;0.20;0.20;;;;;;;10.98;59.89;97812.19;4973542;28;20403;-70
2023/06/05 02:08:49;;;;;;;0.22;0.22;;;;;;;10.99;59.46;97809.34;4969782;28;20065;-70
2023/06/05 02:11:17;;;;;;;0.15;0.15;;;;;;;10.79;60.48;97812.84;4981413;28;20049;-71
2023/06/05 02:13:49;;;;;;;0.20;0.20;;;;;;;10.74;60.37;97804.56;4964589;28;20051;-71
2023/06/05 02:16:17;;;;;;;;;;;;;;;10.61;61.07;97810.56;4955136;28;20058;-69
2023/06/05 02:18:48;;;;;;;0.20;0.20;;;;;;;10.77;60.30;97805.00;4957150;28;19922;-70
2023/06/05 02:21:16;;;;;;;0.10;0.10;;;;;;;10.54;61.49;97809.69;4972183;28;20046;-69
2023/06/05 02:23:45;;;;;;;0.20;0.20;;;;;;;10.38;62.00;97812.59;4979823;28;20159;-69
2023/06/05 02:26:13;;;;;;;0.20;0.20;;;;;;;10.41;61.54;97810.38;4972331;28;20038;-70
2023/06/05 02:28:40;;;;;;;0.10;0.10;;;;;;;10.39;62.31;97814.22;4970322;28;20545;-69
2023/06/05 02:31:15;;;;;;;0.20;0.20;;;;;;;10.42;62.07;97809.34;4983549;28;20043;-70
2023/06/05 02:33:43;;;;;;;0.20;0.20;;;;;;;10.44;61.83;97812.66;4981972;28;20065;-70
2023/06/05 02:36:15;;;;;;;0.20;0.20;;;;;;;10.32;62.26;97810.66;4978090;28;20117;-70
2023/06/05 02:38:44;;;;;;;0.10;0.10;;;;;;;10.05;63.20;97820.16;4962644;28;20043;-70
2023/06/05 02:41:13;;;;;;;0.10;0.10;;;;;;;10.07;62.80;97808.28;4954054;28;20393;-69
2023/06/05 02:43:41;;;;;;;0.20;0.20;;;;;;;10.02;63.25;97815.19;4958202;28;20042;-70
2023/06/05 02:46:10;;;;;;;0.22;0.10;;;;;;;10.09;62.93;97810.75;4971330;28;20042;-71
2023/06/05 02:48:38;;;;;;;0.20;0.20;;;;;;;10.15;62.50;97810.03;4958720;28;20073;-72
2023/06/05 02:51:07;;;;;;;0.22;0.22;;;;;;;9.88;64.01;97815.00;4976045;28;20066;-72
2023/06/05 02:53:35;;;;;;;0.20;0.20;;;;;;;10.25;61.97;97814.09;4952909;28;20283;-72
2023/06/05 02:56:03;;;;;;;0.20;0.20;;;;;;;10.21;62.42;97807.47;4951080;28;20047;-72
2023/06/05 02:58:33;;;;;;;0.20;0.20;;;;;;;10.22;62.20;97808.31;4961741;28;20054;-71
2023/06/05 03:01:01;;;;;;;0.10;0.10;;;;;;;10.21;62.42;97810.13;4949546;28;20137;-72
2023/06/05 03:03:36;;;;;;;0.20;0.20;;;;;;;10.02;63.04;97801.84;4962349;28;20065;-70
2023/06/05 03:06:04;;;;;;;0.10;0.10;;;;;;;9.93;63.40;97807.31;4954502;28;20053;-72
2023/06/05 03:08:41;;;;;;;0.20;0.20;;;;;;;9.94;63.32;97797.47;4970100;28;20057;-71
2023/06/05 03:11:13;;;;;;;0.10;0.10;;;;;;;9.93;63.58;97798.47;4962391;28;20498;-72
2023/06/05 03:13:43;;;;;;;0.22;0.22;;;;;;;9.91;63.41;97793.31;4962694;28;20043;-73
2023/06/05 03:16:12;;;;;;;0.38;0.38;;;;;;;9.90;63.50;97797.00;4962593;28;20453;-72
2023/06/05 03:18:49;;;;;;;0.20;0.20;;;;;;;9.94;63.20;97798.28;4959494;28;20039;-72
2023/06/05 03:21:17;;;;;;;0.10;0.10;;;;;;;9.96;63.13;97799.94;4971261;28;20225;-72
2023/06/05 03:23:45;;;;;;;0.10;0.10;;;;;;;9.99;63.08;97799.56;4976233;28;20086;-72
2023/06/05 03:26:15;;;;;;;0.30;0.30;;;;;;;9.90;63.06;97796.16;4964135;28;20039;-72
2023/06/05 03:28:43;;;;;;;0.30;0.30;;;;;;;9.80;63.19;97800.97;4955987;28;20046;-70
2023/06/05 03:31:12;;;;;;;0.15;0.15;;;;;;;9.77;63.40;97803.97;4954219;28;20098;-70
2023/06/05 03:33:44;;;;;;;0.20;0.20;;;;;;;9.69;63.59;97804.91;4974134;28;20141;-70
2023/06/05 03:36:17;;;;;;;0.10;0.10;;;;;;;9.68;63.87;97811.25;4962948;28;20043;-70
2023/06/05 03:38:45;;;;;;;0.20;0.20;;;;;;;9.67;64.10;97806.94;4978114;28;20046;-69
2023/06/05 03:41:13;;;;;;;0.20;0.20;;;;;;;9.62;64.11;97809.31;4959988;28;20043;-69
2023/06/05 03:43:43;;;;;;;0.10;0.10;;;;;;;9.63;64.22;97805.66;4961907;28;20129;-70
2023/06/05 03:46:18;;;;;;;0.90;0.20;;;;;;;9.68;64.20;97803.25;4969195;28;20046;-72
2023/06/05 03:48:49;;;;;;;0.20;0.20;;;;;;;9.84;63.47;97803.09;4957799;28;20517;-71
2023/06/05 03:51:19;;;;;;;0.10;0.10;;;;;;;9.82;63.70;97805.09;4971898;28;20442;-72
2023/06/05 03:53:54;;;;;;;0.10;0.10;;;;;;;9.82;63.63;97798.94;4959062;28;20138;-70
2023/06/05 03:56:23;;;;;;;0.20;0.20;;;;;;;10.05;62.58;97805.00;4966057;28;20497;-70
2023/06/05 03:58:51;;;;;;;0.20;0.20;;;;;;;9.84;63.47;97807.59;4959345;28;20142;-74
2023/06/05 04:01:18;;;;;;;0.20;0.20;;;;;;;9.73;64.05;97794.72;4974924;28;20502;-74
2023/06/05 04:03:46;;;;;;;0.10;0.10;;;;;;;9.74;63.74;97802.53;4955765;28;20110;-72
2023/06/05 04:06:14;;;;;;;0.20;0.20;;;;;;;9.75;64.07;97806.03;4955105;28;20134;-72
2023/06/05 04:08:43;;;;;;;0.20;0.20;;;;;;;9.80;63.76;97812.44;4950478;28;20043;-70
2023/06/05 04:11:11;;;;;;;0.10;0.10;;;;;;;9.78;63.93;97814.47;4968480;28;20077;-70
2023/06/05 04:13:40;;;;;;;0.20;0.20;;;;;;;9.78;63.82;97813.63;4965567;28;20050;-70
2023/06/05 04:16:11;;;;;;;0.15;0.15;;;;;;;9.78;63.90;97822.47;4960339;28;20514;-70
2023/06/05 04:18:39;;;;;;;0.20;0.20;;;;;;;9.64;64.46;97817.97;4983937;28;20038;-71
2023/06/05 04:21:07;;;;;;;0.20;0.20;;;;;;;9.78;64.08;97817.13;4976401;28;20122;-71
2023/06/05 04:23:35;;;;;;;0.20;0.20;;;;;;;9.80;63.85;97814.28;4964128;28;20571;-71
2023/06/05 04:26:04;;;;;;;0.22;0.22;;;;;;;9.92;63.31;97810.97;4960092;28;20046;-71
2023/06/05 04:28:34;;;;;;;0.20;0.20;;;;;;;9.73;64.21;97811.53;4967241;28;20039;-71
2023/06/05 04:31:01;;;;;;;0.17;0.17;;;;;;;9.75;64.22;97817.53;4956546;28;20046;-71
2023/06/05 04:33:29;;;;;;;0.30;0.30;;;;;;;9.63;64.72;97810.16;4966927;28;20047;-71
2023/06/05 04:35:57;;;;;;;0.10;0.10;;;;;;;9.65;64.83;97816.97;4966479;28;20045;-70
2023/06/05 04:38:27;;;;;;;0.20;0.20;;;;;;;9.69;64.87;97812.91;4977755;28;20038;-71
2023/06/05 04:40:55;;;;;;;0.20;0.20;;;;;;;9.69;64.78;97818.25;4968326;28;20368;-73
2023/06/05 04:43:24;;;;;;;0.20;0.20;;;;;;;9.67;64.87;97812.25;4970364;28;20101;-72
2023/06/05 04:45:51;;;;;;;0.35;0.35;;;;;;;9.80;64.33;97812.44;4959839;28;20058;-71
2023/06/05 04:48:19;;;;;;;0.10;0.10;;;;;;;9.77;64.91;97811.97;4977303;28;20417;-72
2023/06/05 04:50:48;;;;;;;0.20;0.20;;;;;;;9.92;64.39;97810.97;4965551;28;20142;-71
2023/06/05 04:53:16;;;;;;;0.20;0.20;;;;;;;9.95;64.40;97807.13;4986746;28;20082;-70
2023/06/05 04:55:45;;;;;;;0.25;0.25;;;;;;;10.08;63.74;97812.59;4963017;28;20050;-73
2023/06/05 04:58:13;;;;;;;0.10;0.10;;;;;;;10.01;64.10;97808.19;4969808;28;20510;-70
2023/06/05 05:00:44;;;;;;;0.20;0.20;;;;;;;10.13;63.52;97810.22;4964471;28;20039;-70
2023/06/05 05:03:13;;;;;;;0.10;0.10;;;;;;;10.07;63.64;97802.94;4976198;28;20039;-71
2023/06/05 05:05:41;;;;;;;0.20;0.20;;;;;;;10.20;63.49;97807.66;4962981;28;20039;-71
2023/06/05 05:08:09;;;;;;;0.20;0.20;;;;;;;10.24;63.05;97808.94;4986278;28;20042;-71
2023/06/05 05:10:37;;;;;;;0.20;0.20;;;;;;;10.41;62.76;97807.69;4968271;28;20046;-72
2023/06/05 05:13:06;;;;;;;0.20;0.20;;;;;;;10.39;62.83;97807.06;4981282;28;20042;-71
2023/06/05 05:15:34;;;;;;;0.20;0.20;;;;;;;10.52;62.08;97801.88;4960157;28;20042;-72
2023/06/05 05:18:03;;;;;;;0.20;0.20;;;;;;;10.51;62.32;97802.06;4953518;28;20490;-72
2023/06/05 05:20:35;;;;;;;0.13;0.13;;;;;;;10.44;62.44;97807.31;4957842;28;20406;-72
2023/06/05 05:23:07;;;;;;;0.10;0.10;;;;;;;10.57;61.94;97794.13;4966343;28;20035;-71
2023/06/05 05:25:38;;;;;;;0.10;0.10;;;;;;;10.87;61.24;97797.50;4964814;28;20104;-70
2023/06/05 05:28:06;;;;;;;0.20;0.20;;;;;;;11.12;60.75;97795.25;4968033;28;20049;-70
2023/06/05 05:30:34;;;;;;;0.20;0.20;;;;;;;11.25;59.77;97800.69;4960344;28;20130;-71
2023/06/05 05:33:03;;;;;;;0.10;0.10;;;;;;;11.36;60.15;97794.81;4962847;28;20049;-70
2023/06/05 05:35:31;;;;;;;0.10;0.10;;;;;;;11.51;58.63;97789.38;4967028;28;20051;-71
2023/06/05 05:37:59;;;;;;;0.25;0.25;;;;;;;11.58;58.48;97792.09;4967436;28;20051;-70
2023/06/05 05:40:27;;;;;;;0.20;0.20;;;;;;;11.67;58.63;97790.91;4969937;28;20042;-70
2023/06/05 05:42:55;;;;;;;0.20;0.20;;;;;;;11.89;57.81;97794.38;4960247;28;20114;-71
2023/06/05 05:45:22;;;;;;;0.13;0.13;;;;;;;11.90;57.35;97782.63;4988576;28;20048;-71
2023/06/05 05:47:50;;;;;;;0.10;0.10;;;;;;;11.99;57.63;97795.66;4977433;28;20140;-70
2023/06/05 05:50:19;;;;;;;0.10;0.10;;;;;;;12.19;57.53;97793.06;4980981;28;20476;-70
2023/06/05 05:52:47;;;;;;;0.25;0.25;;;;;;;12.39;57.33;97807.34;4987710;28;20402;-71
2023/06/05 05:55:15;;;;;;;0.20;0.20;;;;;;;12.56;56.42;97799.78;4981352;28;20115;-71
2023/06/05 05:57:42;;;;;;;0.20;0.20;;;;;;;12.47;56.35;97804.47;4988882;28;20046;-69
2023/06/05 06:00:12;;;;;;;0.10;0.10;;;;;;;12.55;55.86;97805.34;4982911;28;20052;-72
2023/06/05 06:02:40;;;;;;;0.20;0.20;;;;;;;12.53;55.63;97810.06;4990049;28;20042;-71
2023/06/05 06:05:09;;;;;;;0.20;0.20;;;;;;;12.61;55.44;97807.19;4979517;28;20039;-71
2023/06/05 06:07:40;;;;;;;0.20;0.20;;;;;;;12.71;55.29;97813.00;4983857;28;20049;-71
2023/06/05 06:10:08;;;;;;;0.20;0.20;;;;;;;12.76;55.05;97813.22;4984158;28;20121;-71
2023/06/05 06:12:36;;;;;;;0.10;0.10;;;;;;;12.90;55.16;97809.53;4983393;28;20049;-71
2023/06/05 06:15:04;;;;;;;0.10;0.10;;;;;;;13.00;55.10;97814.47;4980304;28;20043;-70
2023/06/05 06:17:32;;;;;;;0.10;0.10;;;;;;;13.06;55.03;97809.16;4979060;28;20053;-71
2023/06/05 06:20:00;;;;;;;0.10;0.10;;;;;;;13.25;54.84;97809.38;4985700;28;20430;-70
2023/06/05 06:22:28;;;;;;;0.10;0.10;;;;;;;13.37;54.32;97811.25;4990067;28;20042;-71
2023/06/05 06:24:57;;;;;;;0.20;0.20;;;;;;;13.53;54.71;97810.81;4975141;28;20054;-70
2023/06/05 06:27:25;;;;;;;0.10;0.10;;;;;;;13.77;54.44;97813.88;4984167;28;20065;-72
2023/06/05 06:29:56;;;;;;;0.13;0.13;;;;;;;13.94;54.14;97817.75;4985299;28;20133;-72
2023/06/05 06:32:25;;;;;;;0.13;0.13;;;;;;;14.12;53.78;97820.59;4981596;28;20042;-72
2023/06/05 06:34:53;;;;;;;0.30;0.20;;;;;;;14.33;53.19;97819.47;4980518;28;20109;-72
2023/06/05 06:37:22;;;;;;;0.10;0.10;;;;;;;14.49;52.95;97812.84;4984957;28;20046;-72
2023/06/05 06:39:50;;;;;;;0.10;0.10;;;;;;;14.64;52.47;97821.44;4978685;28;20050;-72
2023/06/05 06:42:20;;;;;;;0.20;0.20;;;;;;;14.75;52.60;97814.56;4985101;28;20050;-72
2023/06/05 06:45:05;;;;;;;0.20;0.20;;;;;;;14.90;52.46;97818.59;4968052;28;20061;-71
2023/06/05 06:47:33;;;;;;;0.20;0.20;;;;;;;15.01;52.32;97819.78;4983530;28;20042;-72
2023/06/05 06:50:01;;;;;;;0.10;0.10;;;;;;;15.10;52.36;97821.16;4959723;28;20093;-71
2023/06/05 06:52:28;;;;;;;0.20;0.20;;;;;;;15.26;52.50;97822.50;4985705;28;20034;-71
2023/06/05 06:54:56;;;;;;;0.10;0.10;;;;;;;15.40;52.22;97818.66;4980805;28;20046;-71
2023/06/05 06:57:25;;;;;;;0.15;0.15;;;;;;;15.54;50.96;97814.84;4979045;28;20050;-72
2023/06/05 06:59:54;;;;;;;0.10;0.10;;;;;;;15.71;50.56;97815.91;4976472;28;20060;-70
2023/06/05 07:02:25;;;;;;;0.20;0.20;;;;;;;15.93;49.40;97810.13;4986037;28;20056;-72
2023/06/05 07:04:54;;;;;;;0.10;0.10;;;;;;;16.11;48.85;97810.94;4977012;28;20146;-71
2023/06/05 07:07:22;;;;;;;0.20;0.20;;;;;;;16.28;48.31;97815.75;4988219;28;20057;-70
2023/06/05 07:09:50;;;;;;;0.25;0.10;;;;;;;16.45;47.37;97817.59;4983970;28;20459;-70
2023/06/05 07:12:19;;;;;;;0.15;0.15;;;;;;;16.57;46.90;97809.56;4989188;28;20434;-71
2023/06/05 07:14:49;;;;;;;0.10;0.10;;;;;;;16.71;46.42;97815.66;4979970;28;20030;-71
2023/06/05 07:17:16;;;;;;;0.00;0.00;;;;;;;16.91;46.37;97818.06;4986830;28;20425;-73
2023/06/05 07:19:44;;;;;;;0.10;0.10;;;;;;;17.04;46.57;97805.19;4984640;28;20490;-72
2023/06/05 07:22:12;;;;;;;0.10;0.10;;;;;;;17.28;45.86;97806.06;4987067;28;20121;-72
2023/06/05 07:24:40;;;;;;;0.10;0.10;;;;;;;17.34;45.20;97799.72;4986022;28;20035;-73
2023/06/05 07:27:08;;;;;;;0.20;0.20;;;;;;;17.45;45.25;97801.63;4986954;28;20046;-72
2023/06/05 07:29:35;;;;;;;0.10;0.10;;;;;;;17.56;44.67;97806.22;4986035;28;20050;-72
2023/06/05 07:32:06;;;;;;;0.10;0.10;;;;;;;17.70;44.74;97800.63;4973970;28;20394;-72
2023/06/05 07:34:34;;;;;;;0.20;0.20;;;;;;;17.92;44.21;97796.28;4985066;28;20085;-72
2023/06/05 07:37:02;;;;;;;0.10;0.10;;;;;;;17.63;44.29;97795.34;4974643;28;20050;-73
2023/06/05 07:39:30;;;;;;;0.10;0.10;;;;;;;17.94;44.07;97796.88;4986155;28;20034;-71
2023/06/05 07:41:58;;;;;;;0.20;0.20;;;;;;;18.20;43.85;97790.13;4985998;28;20058;-72
2023/06/05 07:44:25;;;;;;;0.08;0.08;;;;;;;18.39;43.45;97788.06;4986260;28;20478;-72
2023/06/05 07:46:53;;;;;;;0.10;0.10;;;;;;;18.55;42.43;97795.44;4985710;28;20054;-72
2023/06/05 07:49:23;;;;;;;0.15;0.15;;;;;;;18.63;42.29;97784.25;4986400;28;20042;-71
2023/06/05 07:51:51;;;;;;;0.10;0.10;;;;;;;18.88;41.84;97784.75;4978787;28;20061;-71
2023/06/05 07:54:19;;;;;;;0.17;0.10;;;;;;;19.05;42.01;97784.75;4986847;28;20276;-72
2023/06/05 07:56:48;;;;;;;0.25;0.25;;;;;;;19.20;41.48;97782.34;4985064;28;20425;-71
2023/06/05 07:59:22;;;;;;;0.10;0.10;;;;;;;19.31;41.17;97773.28;4986097;28;20125;-72
2023/06/05 08:01:49;;;;;;;0.35;0.20;;;;;;;19.21;41.80;97773.13;4983795;28;20042;-71
2023/06/05 08:04:17;;;;;;;0.20;0.20;;;;;;;19.36;41.48;97773.38;4980234;28;20039;-71
2023/06/05 08:06:46;;;;;;;0.10;0.10;;;;;;;19.53;41.83;97775.28;4976113;28;20379;-71
2023/06/05 08:09:14;;;;;;;0.20;0.20;;;;;;;19.72;41.38;97774.81;4960245;28;20050;-72
2023/06/05 08:11:42;;;;;;;0.10;0.10;;;;;;;19.82;40.66;97779.53;4981848;28;20074;-71
2023/06/05 08:14:10;;;;;;;0.10;0.10;;;;;;;19.87;40.37;97774.19;4972460;28;20142;-72
2023/06/05 08:16:38;;;;;;;0.30;0.20;;;;;;;20.00;40.22;97778.44;4974636;28;20077;-71
2023/06/05 08:19:06;;;;;;;0.10;0.10;;;;;;;20.08;40.32;97781.53;4987917;28;20126;-71
2023/06/05 08:21:34;;;;;;;0.10;0.10;;;;;;;19.96;39.94;97778.09;4980546;28;20070;-71
2023/06/05 08:24:03;;;;;;;0.20;0.10;;;;;;;19.96;40.35;97780.81;4975733;28;20093;-72
2023/06/05 08:26:31;;;;;;;0.20;0.10;;;;;;;19.95;40.44;97779.16;4976053;28;20085;-71
2023/06/05 08:28:58;;;;;;;0.10;0.10;;;;;;;20.02;40.58;97774.41;4977279;28;20054;-71
2023/06/05 08:31:26;;;;;;;0.10;0.10;;;;;;;20.13;41.05;97773.47;4975523;28;20043;-72
2023/06/05 08:33:54;;;;;;;0.10;0.10;;;;;;;20.02;40.79;97769.00;4964897;28;20047;-71
2023/06/05 08:36:23;;;;;;;0.15;0.13;;;;;;;19.67;41.54;97763.88;4970762;28;20046;-72
2023/06/05 08:38:51;;;;;;;0.10;0.10;;;;;;;20.06;41.39;97774.69;4984198;28;20047;-71
2023/06/05 08:41:20;;;;;;;0.10;0.10;;;;;;;20.37;41.13;97765.91;4982881;28;20043;-71
2023/06/05 08:43:48;;;;;;;0.20;0.10;;;;;;;20.51;40.52;97756.34;4982459;28;20147;-70
2023/06/05 08:46:17;;;;;;;0.10;0.10;;;;;;;20.62;40.74;97751.84;4980079;28;20387;-71
2023/06/05 08:48:46;;;;;;;0.10;0.10;;;;;;;20.82;40.12;97762.09;4976739;28;20047;-72
2023/06/05 08:51:15;;;;;;;0.10;0.10;;;;;;;20.98;39.67;97763.03;4975016;28;20053;-71
2023/06/05 08:53:45;;;;;;;0.03;0.03;;;;;;;20.97;40.06;97759.50;4981826;28;20066;-72
2023/06/05 08:56:13;;;;;;;0.10;0.10;;;;;;;20.93;40.15;97769.25;4975630;28;20043;-72
2023/06/05 08:58:42;;;;;;;0.10;0.10;;;;;;;21.00;40.18;97764.41;4978587;28;20042;-71
2023/06/05 09:01:10;;;;;;;0.10;0.10;;;;;;;20.67;40.51;97768.16;4973608;28;20058;-71
2023/06/05 09:03:38;;;;;;;0.10;0.10;;;;;;;20.73;40.55;97766.34;4972409;28;20117;-72
2023/06/05 09:06:06;;;;;;;0.10;0.10;;;;;;;20.77;40.89;97753.88;4981190;28;20481;-71
2023/06/05 09:08:35;;;;;;;0.10;0.10;;;;;;;20.91;40.37;97754.28;4973700;28;20047;-71
2023/06/05 09:11:22;;;;;;;0.13;0.13;;;;;;;21.02;40.61;97756.84;4972911;28;20042;-71
2023/06/05 09:13:52;;;;;;;0.20;0.20;;;;;;;21.14;40.14;97754.78;4985069;28;20056;-71
2023/06/05 09:16:21;;;;;;;0.00;0.00;;;;;;;21.24;40.04;97743.22;4985294;28;20122;-72
2023/06/05 09:18:53;;;;;;;0.10;0.10;;;;;;;21.53;39.39;97755.41;4983049;28;20101;-71
2023/06/05 09:21:21;;;;;;;;;;;;;;;21.73;38.85;97743.03;4982858;28;20039;-71
2023/06/05 09:23:48;;;;;;;0.00;0.00;;;;;;;21.81;38.88;97754.22;4980758;28;19936;-72
2023/06/05 09:26:16;;;;;;;0.00;0.00;;;;;;;21.70;39.12;97749.00;4981154;28;20126;-71
2023/06/05 09:28:57;;;;;;;0.10;0.10;;;;;;;21.84;38.68;97758.31;4974251;28;20038;-71
2023/06/05 09:31:24;;;;;;;0.10;0.10;;;;;;;21.94;38.33;97753.75;4981416;28;20513;-71
2023/06/05 09:33:57;;;;;;;0.10;0.10;;;;;;;22.09;38.60;97754.97;4976793;28;20039;-71
2023/06/05 09:36:26;;;;;;;0.10;0.10;;;;;;;22.03;39.04;97748.66;4962402;28;20485;-71
2023/06/05 09:38:54;;;;;;;0.10;0.10;;;;;;;22.06;39.04;97748.16;4980718;28;20050;-71
2023/06/05 09:41:22;;;;;;;0.10;0.10;;;;;;;22.04;39.20;97749.47;4971919;28;20125;-71
2023/06/05 09:43:50;;;;;;;0.10;0.10;;;;;;;22.09;39.45;97746.81;4980457;28;20503;-72
2023/06/05 09:46:19;;;;;;;0.10;0.10;;;;;;;22.13;39.39;97748.72;4980976;28;20376;-72
2023/06/05 09:48:53;;;;;;;0.08;0.08;;;;;;;22.30;39.50;97749.34;4980454;28;20105;-71
2023/06/05 09:51:21;;;;;;;0.00;0.00;;;;;;;22.48;39.15;97747.22;4979262;28;20042;-72
2023/06/05 09:53:50;;;;;;;0.08;0.08;;;;;;;22.51;39.07;97741.25;4978089;28;20057;-71
2023/06/05 09:56:19;;;;;;;0.10;0.10;;;;;;;22.60;38.98;97745.09;4980133;28;20049;-71
2023/06/05 09:58:47;;;;;;;0.10;0.10;;;;;;;22.68;38.53;97739.13;4985059;28;20052;-71
2023/06/05 10:01:17;;;;;;;0.03;0.03;;;;;;;22.63;38.62;97739.13;4985328;28;20046;-71
2023/06/05 10:03:49;;;;;;;0.10;0.10;;;;;;;22.63;38.90;97734.47;4982391;28;20050;-71
2023/06/05 10:06:23;;;;;;;0.10;0.10;;;;;;;22.51;38.83;97739.34;4984618;28;20069;-71
2023/06/05 10:08:52;;;;;;;0.20;0.10;;;;;;;22.23;38.86;97735.16;4978888;28;20142;-71
2023/06/05 10:11:21;;;;;;;0.10;0.10;;;;;;;21.92;40.07;97739.59;4979344;28;20042;-71
2023/06/05 10:13:49;;;;;;;0.10;0.10;;;;;;;22.07;39.89;97733.47;4981887;28;20627;-71
2023/06/05 10:16:18;;;;;;;0.10;0.10;;;;;;;22.17;40.28;97736.22;4979983;28;20105;-71
2023/06/05 10:18:56;;;;;;;0.10;0.10;;;;;;;22.16;40.22;97745.47;4980194;28;20469;-71
2023/06/05 10:21:24;;;;;;;0.00;0.00;;;;;;;22.13;40.65;97731.56;4973339;28;20490;-71
2023/06/05 10:23:56;;;;;;;0.10;0.10;;;;;;;22.10;40.68;97732.13;4981400;28;20046;-71
2023/06/05 10:26:28;;;;;;;;;;;;;;;22.14;40.76;97738.66;4981889;28;20049;-71
2023/06/05 10:29:01;;;;;;;0.13;0.13;;;;;;;22.23;40.86;97737.88;4987954;28;19977;-71
2023/06/05 10:31:36;;;;;;;0.10;0.10;;;;;;;22.34;40.87;97734.13;4980167;28;20141;-72
2023/06/05 10:34:15;;;;;;;0.00;0.00;;;;;;;22.36;41.15;97733.03;4965497;28;20117;-72
2023/06/05 10:37:03;;;;;;;0.10;0.10;;;;;;;22.42;41.13;97730.09;4976267;28;20491;-71
2023/06/05 10:39:33;;;;;;;0.10;0.10;;;;;;;22.62;40.55;97729.31;4978073;28;20051;-72
2023/06/05 10:42:00;;;;;;;0.10;0.10;;;;;;;22.75;40.42;97736.97;4984961;28;20070;-72
2023/06/05 10:44:41;;;;;;;0.10;0.10;;;;;;;22.92;40.11;97725.88;4982721;28;20049;-71
2023/06/05 10:47:50;;;;;;;0.10;0.10;;;;;;;23.05;39.83;97728.03;4986448;28;20046;-72
2023/06/05 10:50:26;;;;;;;0.10;0.10;;;;;;;23.08;39.58;97715.78;4976038;28;20494;-71
2023/06/05 10:52:56;;;;;;;0.10;0.10;;;;;;;23.20;39.53;97722.59;4980705;28;20057;-71
2023/06/05 10:55:25;;;;;;;0.00;0.00;;;;;;;23.30;39.92;97710.88;4987641;28;20042;-71
2023/06/05 10:58:03;;;;;;;0.10;0.10;;;;;;;23.63;38.86;97714.97;4988505;28;20091;-71
2023/06/05 11:00:32;;;;;;;0.10;0.10;;;;;;;23.83;38.54;97720.38;4982631;28;20410;-72
2023/06/05 11:03:00;;;;;;;0.20;0.10;;;;;;;23.98;38.21;97711.34;4986250;28;20066;-71
2023/06/05 11:05:30;;;;;;;0.10;0.10;;;;;;;24.13;37.96;97714.81;4980638;28;20509;-72
2023/06/05 11:08:12;;;;;;;0.10;0.10;;;;;;;24.18;38.02;97697.63;4988460;28;20097;-71
2023/06/05 11:11:02;;;;;;;0.00;0.00;;;;;;;24.28;37.65;97697.59;4988407;28;20477;-72
2023/06/05 11:13:55;;;;;;;0.10;0.10;;;;;;;24.36;37.55;97694.28;4987473;28;20414;-72
2023/06/05 11:16:27;;;;;;;0.00;0.00;;;;;;;24.44;37.53;97690.97;4982542;28;20395;-71
2023/06/05 11:18:55;;;;;;;0.30;0.10;;;;;;;24.58;37.16;97687.63;4994829;28;20047;-71
2023/06/05 11:22:02;;;;;;;0.10;0.10;;;;;;;24.69;36.81;97689.19;4983262;28;20043;-72
2023/06/05 11:24:31;;;;;;;0.30;0.08;;;;;;;24.79;37.11;97679.00;4983328;28;20495;-72
2023/06/05 11:26:58;;;;;;;0.08;0.08;;;;;;;24.98;35.09;97681.09;4990789;28;20130;-71
2023/06/05 11:29:26;;;;;;;0.00;0.00;;;;;;;25.00;35.46;97670.69;5005356;28;20054;-72
2023/06/05 11:31:54;;;;;;;0.73;0.05;;;;;;;24.96;36.30;97666.91;4982842;28;20818;-72
2023/06/05 11:34:22;;;;;;;0.10;0.10;;;;;;;25.13;35.88;97673.56;4990322;28;20038;-71
2023/06/05 11:36:51;;;;;;;0.10;0.10;;;;;;;25.21;34.89;97670.25;4988597;28;20047;-72
2023/06/05 11:39:19;;;;;;;0.10;0.10;;;;;;;25.20;34.54;97673.25;4987234;28;20493;-72
2023/06/05 11:41:48;;;;;;;0.03;0.03;;;;;;;25.13;34.11;97670.03;4985322;28;20047;-72
2023/06/05 11:44:16;;;;;;;0.10;0.10;;;;;;;25.12;34.37;97669.22;4986783;28;20047;-72
2023/06/05 11:46:44;;;;;;;0.00;0.00;;;;;;;25.16;33.81;97662.06;4991745;28;20046;-72
2023/06/05 11:49:24;;;;;;;0.10;0.10;;;;;;;25.03;34.53;97662.72;4987054;28;20113;-72